createdAt,value
2018-01-21T00:01:58.866Z,100374.53
2018-01-21T00:04:24.646Z,100377.16
2018-01-21T00:06:50.395Z,100384.99
2018-01-21T00:09:16.157Z,100389.33
2018-01-21T00:11:41.886Z,100388.41
2018-01-21T00:14:07.639Z,100385.28
2018-01-21T00:16:33.405Z,100391.34
2018-01-21T00:18:59.150Z,100397.38
2018-01-21T00:21:24.935Z,100401.72
2018-01-21T00:23:50.667Z,100404.70
2018-01-21T00:26:16.413Z,100410.27
2018-01-21T00:28:42.151Z,100410.20
2018-01-21T00:31:07.886Z,100404.95
2018-01-21T00:33:33.627Z,100410.94
2018-01-21T00:35:59.379Z,100420.44
2018-01-21T00:38:25.118Z,100423.08
2018-01-21T00:40:50.870Z,100430.39
2018-01-21T00:43:16.614Z,100433.84
2018-01-21T00:45:42.367Z,100425.42
2018-01-21T00:48:08.117Z,100437.13
2018-01-21T00:50:33.874Z,100441.39
2018-01-21T00:52:59.635Z,100450.52
2018-01-21T00:55:25.378Z,100450.13
2018-01-21T00:57:51.146Z,100450.63
2018-01-21T01:00:16.898Z,100453.19
2018-01-21T01:02:42.635Z,100451.00
2018-01-21T01:05:08.410Z,100460.08
2018-01-21T01:07:34.154Z,100470.48
2018-01-21T01:09:59.890Z,100475.20
2018-01-21T01:12:25.631Z,100477.25
2018-01-21T01:14:51.366Z,100476.66
2018-01-21T01:17:17.110Z,100480.98
2018-01-21T01:19:42.852Z,100486.39
2018-01-21T01:22:08.607Z,100487.31
2018-01-21T01:24:34.334Z,100497.34
2018-01-21T01:27:00.086Z,100502.94
2018-01-21T01:29:25.819Z,100512.88
2018-01-21T01:31:51.551Z,100509.47
2018-01-21T01:34:17.291Z,100509.80
2018-01-21T01:36:43.036Z,100521.17
2018-01-21T01:39:08.795Z,100518.16
2018-01-21T01:41:34.568Z,100517.16
2018-01-21T01:44:00.310Z,100527.99
2018-01-21T01:46:26.038Z,100527.69
2018-01-21T01:48:53.594Z,100527.27
2018-01-21T01:51:19.326Z,100534.63
2018-01-21T01:53:45.090Z,100542.48
2018-01-21T01:56:10.823Z,100546.05
2018-01-21T01:58:36.576Z,100545.16
2018-01-21T02:01:02.319Z,100552.13
2018-01-21T02:03:28.067Z,100556.13
2018-01-21T02:05:53.807Z,100555.23
2018-01-21T02:08:19.563Z,100567.73
2018-01-21T02:10:45.301Z,100572.11
2018-01-21T02:13:11.059Z,100566.06
2018-01-21T02:15:36.814Z,100575.64
2018-01-21T02:18:02.625Z,100574.79
2018-01-21T02:20:28.326Z,100578.29
2018-01-21T02:22:54.054Z,100584.84
2018-01-21T02:25:19.805Z,100583.55
2018-01-21T02:27:45.550Z,100588.33
2018-01-21T02:30:11.301Z,100583.13
2018-01-21T02:32:37.059Z,100592.27
2018-01-21T02:35:02.810Z,100584.41
2018-01-21T02:37:28.550Z,100586.88
2018-01-21T02:39:54.311Z,100586.49
2018-01-21T02:42:20.046Z,100580.86
2018-01-21T02:44:45.812Z,100584.24
2018-01-21T02:47:11.562Z,100595.50
2018-01-21T02:49:37.319Z,100594.94
2018-01-21T02:52:03.060Z,100597.95
2018-01-21T02:54:28.810Z,100607.49
2018-01-21T02:56:54.546Z,100604.91
2018-01-21T02:59:20.280Z,100616.75
2018-01-21T03:01:46.039Z,100615.06
2018-01-21T03:04:11.773Z,100619.04
2018-01-21T03:06:37.518Z,100627.75
2018-01-21T03:09:03.274Z,100631.76
2018-01-21T03:11:29.032Z,100639.25
2018-01-21T03:13:54.755Z,100642.17
2018-01-21T03:16:20.514Z,100643.52
2018-01-21T03:18:46.259Z,100650.38
2018-01-21T03:21:12.012Z,100658.16
2018-01-21T03:23:37.754Z,100660.85
2018-01-21T03:26:03.514Z,100659.20
2018-01-21T03:28:29.250Z,100670.98
2018-01-21T03:30:54.986Z,100669.36
2018-01-21T03:33:20.714Z,100669.81
2018-01-21T03:35:46.467Z,100678.70
2018-01-21T03:38:12.190Z,100679.22
2018-01-21T03:40:37.939Z,100682.81
2018-01-21T03:43:03.679Z,100686.45
2018-01-21T03:45:29.418Z,100692.66
2018-01-21T03:47:55.181Z,100692.66
2018-01-21T03:50:20.954Z,100695.27
2018-01-21T03:52:46.706Z,100703.86
2018-01-21T03:55:12.466Z,100708.20
2018-01-21T03:57:38.214Z,100708.16
2018-01-21T04:00:03.954Z,100720.73
2018-01-21T04:02:29.697Z,100731.08
2018-01-21T04:04:55.438Z,100737.94
2018-01-21T04:07:21.187Z,100742.25
2018-01-21T04:09:46.918Z,100737.81
2018-01-21T04:12:13.566Z,100747.42
2018-01-21T04:14:39.302Z,100749.40
2018-01-21T04:17:05.051Z,100753.86
2018-01-21T04:19:30.773Z,100757.58
2018-01-21T04:21:56.531Z,100766.02
2018-01-21T04:24:22.283Z,100764.17
2018-01-21T04:26:49.705Z,100771.24
2018-01-21T04:29:15.458Z,100768.94
2018-01-21T04:31:41.215Z,100776.31
2018-01-21T04:34:06.960Z,100781.09
2018-01-21T04:36:32.718Z,100792.13
2018-01-21T04:38:58.463Z,100789.73
2018-01-21T04:41:24.202Z,100791.40
2018-01-21T04:43:49.949Z,100795.46
2018-01-21T04:46:15.686Z,100797.52
2018-01-21T04:48:41.429Z,100800.48
2018-01-21T04:51:07.174Z,100806.35
2018-01-21T04:53:32.950Z,100809.47
2018-01-21T04:55:58.687Z,100814.47
2018-01-21T04:58:24.451Z,100815.59
2018-01-21T05:00:50.202Z,100820.42
2018-01-21T05:03:15.961Z,100815.58
2018-01-21T05:05:41.714Z,100814.60
2018-01-21T05:08:07.474Z,100827.93
2018-01-21T05:10:33.230Z,100838.88
2018-01-21T05:12:58.994Z,100841.41
2018-01-21T05:15:24.731Z,100841.63
2018-01-21T05:17:50.491Z,100841.22
2018-01-21T05:20:16.230Z,100854.13
2018-01-21T05:22:41.986Z,100854.28
2018-01-21T05:25:07.736Z,100857.03
2018-01-21T05:27:33.493Z,100859.38
2018-01-21T05:29:59.232Z,100864.00
2018-01-21T05:32:24.978Z,100872.06
2018-01-21T05:34:50.721Z,100871.84
2018-01-21T05:37:16.462Z,100875.26
2018-01-21T05:39:42.218Z,100881.30
2018-01-21T05:42:07.961Z,100879.62
2018-01-21T05:44:33.707Z,100881.51
2018-01-21T05:46:59.446Z,100884.22
2018-01-21T05:49:25.200Z,100889.94
2018-01-21T05:51:50.945Z,100898.66
2018-01-21T05:54:16.726Z,100897.99
2018-01-21T05:56:42.465Z,100905.06
2018-01-21T05:59:08.212Z,100902.30
2018-01-21T06:01:33.970Z,100909.14
2018-01-21T06:03:59.726Z,100913.12
2018-01-21T06:06:25.467Z,100915.41
2018-01-21T06:08:51.245Z,100919.32
2018-01-21T06:11:16.981Z,100922.64
2018-01-21T06:13:42.734Z,100929.80
2018-01-21T06:16:08.486Z,100934.11
2018-01-21T06:18:34.490Z,100945.41
2018-01-21T06:21:00.258Z,100949.98
2018-01-21T06:23:26.001Z,100951.90
2018-01-21T06:25:51.754Z,100956.09
2018-01-21T06:28:17.503Z,100954.84
2018-01-21T06:30:43.254Z,100955.35
2018-01-21T06:33:09.001Z,100959.48
2018-01-21T06:35:34.746Z,100966.10
2018-01-21T06:38:00.483Z,100979.53
2018-01-21T06:40:26.238Z,100982.30
2018-01-21T06:42:51.984Z,100989.66
2018-01-21T06:45:17.727Z,100991.76
2018-01-21T06:47:43.487Z,100994.69
2018-01-21T06:50:09.265Z,101007.36
2018-01-21T06:52:35.001Z,101012.11
2018-01-21T06:55:00.754Z,101017.23
2018-01-21T06:57:26.510Z,101021.71
2018-01-21T06:59:52.254Z,101021.09
2018-01-21T07:02:18.011Z,101028.38
2018-01-21T07:04:43.754Z,101031.86
2018-01-21T07:07:09.517Z,101034.91
2018-01-21T07:09:35.263Z,101043.67
2018-01-21T07:12:01.022Z,101048.36
2018-01-21T07:14:26.766Z,101054.11
2018-01-21T07:16:52.515Z,101055.23
2018-01-21T07:19:18.263Z,101063.60
2018-01-21T07:21:44.007Z,101064.80
2018-01-21T07:24:09.767Z,101060.16
2018-01-21T07:26:35.521Z,101066.27
2018-01-21T07:29:01.278Z,101071.26
2018-01-21T07:31:27.031Z,101077.20
2018-01-21T07:33:52.766Z,101087.19
2018-01-21T07:36:18.511Z,101094.28
2018-01-21T07:38:44.253Z,101095.13
2018-01-21T07:41:10.003Z,101095.38
2018-01-21T07:43:35.759Z,101101.84
2018-01-21T07:46:01.523Z,101099.84
2018-01-21T07:48:27.263Z,101113.27
2018-01-21T07:50:53.018Z,101123.66
2018-01-21T07:53:18.786Z,101123.88
2018-01-21T07:55:44.538Z,101129.96
2018-01-21T07:58:10.286Z,101136.34
2018-01-21T08:00:36.026Z,101142.38
2018-01-21T08:03:01.775Z,101142.91
2018-01-21T08:05:27.526Z,101146.09
2018-01-21T08:07:53.290Z,101149.47
2018-01-21T08:10:19.030Z,101155.03
2018-01-21T08:12:44.793Z,101162.06
2018-01-21T08:15:10.543Z,101165.19
2018-01-21T08:17:42.536Z,101163.34
2018-01-21T08:20:08.283Z,101170.09
2018-01-21T08:22:34.043Z,101179.03
2018-01-21T08:24:59.767Z,101188.06
2018-01-21T08:27:25.522Z,101194.45
2018-01-21T08:29:51.257Z,101197.07
2018-01-21T08:32:16.995Z,101200.07
2018-01-21T08:37:53.707Z,101219.58
2018-01-21T08:40:25.440Z,101227.70
2018-01-21T08:42:51.207Z,101238.06
2018-01-21T08:45:16.963Z,101231.76
2018-01-21T08:47:42.705Z,101241.17
2018-01-21T08:50:08.452Z,101236.14
2018-01-21T08:52:34.195Z,101238.66
2018-01-21T08:54:59.946Z,101242.67
2018-01-21T08:57:25.698Z,101243.46
2018-01-21T08:59:51.463Z,101256.81
2018-01-21T09:02:17.210Z,101260.44
2018-01-21T09:04:42.964Z,101260.23
2018-01-21T09:07:09.436Z,101267.40
2018-01-21T09:09:36.901Z,101274.56
2018-01-21T09:12:02.642Z,101278.84
2018-01-21T09:14:28.398Z,101283.38
2018-01-21T09:16:54.159Z,101286.14
2018-01-21T09:19:19.922Z,101286.20
2018-01-21T09:21:45.671Z,101295.05
2018-01-21T09:24:11.424Z,101303.20
2018-01-21T09:26:37.186Z,101305.96
2018-01-21T09:29:02.979Z,101310.11
2018-01-21T09:31:28.723Z,101310.48
2018-01-21T09:33:54.470Z,101312.20
2018-01-21T09:36:20.540Z,101316.44
2018-01-21T09:38:46.443Z,101323.49
2018-01-21T09:41:12.413Z,101324.39
2018-01-21T09:43:39.097Z,101323.73
2018-01-21T09:46:05.914Z,101325.06
2018-01-21T09:48:32.873Z,101331.20
2018-01-21T09:51:00.436Z,101343.11
2018-01-21T09:53:27.057Z,101345.13
2018-01-21T09:55:54.145Z,101340.21
2018-01-21T09:58:19.889Z,101350.76
2018-01-21T10:00:45.675Z,101351.23
2018-01-21T10:03:11.402Z,101353.34
2018-01-21T10:05:37.194Z,101348.16
2018-01-21T10:08:02.962Z,101351.80
2018-01-21T10:10:28.706Z,101347.44
2018-01-21T10:12:54.466Z,101346.31
2018-01-21T10:15:20.206Z,101347.72
2018-01-21T10:17:45.973Z,101350.29
2018-01-21T10:20:11.823Z,101357.94
2018-01-21T10:22:38.887Z,101359.09
2018-01-21T10:25:04.674Z,101365.70
2018-01-21T10:27:30.597Z,101368.86
2018-01-21T10:29:56.350Z,101375.91
2018-01-21T10:32:22.099Z,101378.17
2018-01-21T10:34:47.839Z,101382.45
2018-01-21T10:37:13.582Z,101393.83
2018-01-21T10:39:39.326Z,101398.44
2018-01-21T10:42:05.073Z,101392.83
2018-01-21T10:44:30.806Z,101404.83
2018-01-21T10:46:56.547Z,101408.77
2018-01-21T10:49:22.282Z,101408.77
2018-01-21T10:51:55.044Z,101405.79
2018-01-21T10:54:20.792Z,101408.51
2018-01-21T10:56:46.586Z,101406.87
2018-01-21T10:59:12.338Z,101412.08
2018-01-21T11:01:38.205Z,101415.11
2018-01-21T11:04:04.047Z,101419.87
2018-01-21T11:06:29.787Z,101410.80
2018-01-21T11:08:55.526Z,101420.63
2018-01-21T11:11:21.263Z,101426.00
2018-01-21T11:13:47.015Z,101420.21
2018-01-21T11:16:12.760Z,101420.28
2018-01-21T11:18:38.523Z,101427.53
2018-01-21T11:21:04.278Z,101420.97
2018-01-21T11:23:30.035Z,101428.94
2018-01-21T11:25:55.859Z,101424.97
2018-01-21T11:28:21.944Z,101427.63
2018-01-21T11:33:20.162Z,101427.41
2018-01-21T11:35:45.897Z,101432.83
2018-01-21T11:38:11.650Z,101434.22
2018-01-21T11:40:37.398Z,101441.09
2018-01-21T11:43:03.149Z,101439.75
2018-01-21T11:45:28.894Z,101438.61
2018-01-21T11:47:54.663Z,101430.45
2018-01-21T11:50:20.435Z,101435.58
2018-01-21T11:52:46.179Z,101431.70
2018-01-21T11:55:11.934Z,101427.50
2018-01-21T11:57:37.695Z,101426.27
2018-01-21T12:00:03.453Z,101428.34
2018-01-21T12:02:29.203Z,101428.50
2018-01-21T12:04:54.971Z,101437.38
2018-01-21T12:07:20.718Z,101432.95
2018-01-21T12:09:46.472Z,101440.05
2018-01-21T12:12:12.210Z,101433.37
2018-01-21T12:14:37.962Z,101430.55
2018-01-21T12:17:03.710Z,101435.11
2018-01-21T12:19:29.465Z,101435.23
2018-01-21T12:21:55.207Z,101443.55
2018-01-21T12:24:20.955Z,101449.63
2018-01-21T12:26:46.706Z,101451.95
2018-01-21T12:29:12.458Z,101445.34
2018-01-21T12:31:38.201Z,101448.91
2018-01-21T12:34:04.235Z,101445.45
2018-01-21T12:36:30.009Z,101445.16
2018-01-21T12:38:55.758Z,101446.33
2018-01-21T12:41:21.523Z,101443.24
2018-01-21T12:43:47.267Z,101452.56
2018-01-21T12:46:13.028Z,101449.73
2018-01-21T12:48:38.776Z,101451.07
2018-01-21T12:51:04.544Z,101455.80
2018-01-21T12:53:30.295Z,101455.82
2018-01-21T12:55:56.155Z,101467.84
2018-01-21T12:58:21.903Z,101472.11
2018-01-21T13:00:47.658Z,101474.50
2018-01-21T13:03:13.414Z,101482.79
2018-01-21T13:05:39.185Z,101486.22
2018-01-21T13:08:04.926Z,101487.71
2018-01-21T13:10:30.891Z,101497.00
2018-01-21T13:12:56.630Z,101496.14
2018-01-21T13:15:22.607Z,101501.98
2018-01-21T13:17:48.383Z,101502.77
2018-01-21T13:20:14.126Z,101516.68
2018-01-21T13:22:39.874Z,101517.05
2018-01-21T13:25:05.614Z,101517.74
2018-01-21T13:27:31.373Z,101525.42
2018-01-21T13:29:57.110Z,101518.30
2018-01-21T13:32:22.851Z,101520.72
2018-01-21T13:34:48.896Z,101529.64
2018-01-21T13:37:14.640Z,101531.54
2018-01-21T13:39:40.447Z,101538.01
2018-01-21T13:42:06.217Z,101532.57
2018-01-21T13:44:36.407Z,101532.28
2018-01-21T13:47:02.185Z,101536.27
2018-01-21T13:49:28.977Z,101541.92
2018-01-21T13:51:54.762Z,101551.34
2018-01-21T13:54:20.519Z,101551.63
2018-01-21T13:56:46.303Z,101546.06
2018-01-21T13:59:12.049Z,101550.09
2018-01-21T14:01:37.849Z,101544.92
2018-01-21T14:04:03.608Z,101550.09
2018-01-21T14:06:29.423Z,101555.94
2018-01-21T14:08:55.193Z,101559.80
2018-01-21T14:11:20.935Z,101560.32
2018-01-21T14:13:46.690Z,101563.56
2018-01-21T14:16:12.438Z,101560.77
2018-01-21T14:18:38.195Z,101561.56
2018-01-21T14:21:03.946Z,101561.47
2018-01-21T14:23:29.863Z,101560.88
2018-01-21T14:25:55.645Z,101567.42
2018-01-21T14:28:21.390Z,101561.98
2018-01-21T14:30:47.133Z,101568.13
2018-01-21T14:33:12.890Z,101568.98
2018-01-21T14:35:38.775Z,101566.61
2018-01-21T14:38:04.554Z,101569.93
2018-01-21T14:40:30.297Z,101565.50
2018-01-21T14:42:56.057Z,101577.38
2018-01-21T14:45:21.807Z,101575.46
2018-01-21T14:47:47.703Z,101575.36
2018-01-21T14:50:13.467Z,101591.72
2018-01-21T14:52:39.218Z,101587.38
2018-01-21T14:55:05.780Z,101592.27
2018-01-21T14:57:32.618Z,101596.60
2018-01-21T14:59:59.236Z,101594.72
2018-01-21T15:02:26.202Z,101596.30
2018-01-21T15:04:52.951Z,101596.30
2018-01-21T15:07:19.990Z,101596.47
2018-01-21T15:09:45.841Z,101589.71
2018-01-21T15:12:11.587Z,101591.55
2018-01-21T15:14:37.705Z,101589.75
2018-01-21T15:17:03.454Z,101592.84
2018-01-21T15:19:29.360Z,101594.00
2018-01-21T15:21:55.098Z,101597.99
2018-01-21T15:24:21.316Z,101608.92
2018-01-21T15:26:48.282Z,101604.90
2018-01-21T15:29:15.043Z,101610.95
2018-01-21T15:31:40.855Z,101611.45
2018-01-21T15:34:06.598Z,101605.80
2018-01-21T15:36:32.358Z,101604.09
2018-01-21T15:38:58.173Z,101597.77
2018-01-21T15:41:23.932Z,101601.00
2018-01-21T15:43:49.686Z,101600.59
2018-01-21T15:46:15.435Z,101606.47
2018-01-21T15:48:41.190Z,101600.73
2018-01-21T15:51:06.935Z,101600.73
2018-01-21T15:53:32.671Z,101604.17
2018-01-21T15:55:58.422Z,101608.39
2018-01-21T15:58:24.167Z,101608.44
2018-01-21T16:00:49.914Z,101618.88
2018-01-21T16:03:15.654Z,101618.93
2018-01-21T16:05:41.406Z,101623.50
2018-01-21T16:08:07.182Z,101617.76
2018-01-21T16:10:32.934Z,101618.16
2018-01-21T16:12:58.694Z,101617.27
2018-01-21T16:15:24.445Z,101620.72
2018-01-21T16:17:50.196Z,101624.75
2018-01-21T16:20:15.943Z,101625.20
2018-01-21T16:22:41.701Z,101625.60
2018-01-21T16:25:07.536Z,101620.63
2018-01-21T16:27:33.281Z,101625.52
2018-01-21T16:29:59.024Z,101616.06
2018-01-21T16:32:24.790Z,101619.14
2018-01-21T16:34:50.527Z,101619.14
2018-01-21T16:37:28.715Z,101614.16
2018-01-21T16:39:54.475Z,101622.33
2018-01-21T16:42:20.279Z,101621.80
2018-01-21T16:44:46.004Z,101612.48
2018-01-21T16:47:11.758Z,101618.08
2018-01-21T16:49:37.566Z,101621.56
2018-01-21T16:52:03.314Z,101606.83
2018-01-21T16:54:29.113Z,101610.00
2018-01-21T16:56:54.828Z,101610.44
2018-01-21T16:59:20.568Z,101609.53
2018-01-21T17:01:46.303Z,101603.34
2018-01-21T17:04:12.055Z,101600.00
2018-01-21T17:06:37.801Z,101597.04
2018-01-21T17:09:03.566Z,101596.73
2018-01-21T17:11:29.304Z,101604.03
2018-01-21T17:13:55.091Z,101604.49
2018-01-21T17:16:20.830Z,101606.66
2018-01-21T17:18:46.586Z,101605.47
2018-01-21T17:21:12.331Z,101602.81
2018-01-21T17:23:38.094Z,101598.07
2018-01-21T17:26:03.842Z,101595.44
2018-01-21T17:28:29.620Z,101596.27
2018-01-21T17:30:55.374Z,101594.67
2018-01-21T17:33:21.114Z,101592.27
2018-01-21T17:35:46.867Z,101595.87
2018-01-21T17:38:12.608Z,101589.48
2018-01-21T17:40:38.366Z,101604.20
2018-01-21T17:43:04.106Z,101600.72
2018-01-21T17:45:29.867Z,101608.71
2018-01-21T17:47:55.615Z,101610.70
2018-01-21T17:50:21.372Z,101621.43
2018-01-21T17:52:47.119Z,101621.13
2018-01-21T17:55:12.891Z,101624.67
2018-01-21T17:57:38.647Z,101619.61
2018-01-21T18:00:04.414Z,101623.61
2018-01-21T18:02:30.170Z,101621.77
2018-01-21T18:04:55.906Z,101626.70
2018-01-21T18:07:21.666Z,101626.94
2018-01-21T18:09:47.442Z,101627.92
2018-01-21T18:12:13.178Z,101627.56
2018-01-21T18:14:38.927Z,101624.97
2018-01-21T18:17:04.686Z,101627.17
2018-01-21T18:19:30.421Z,101630.35
2018-01-21T18:21:56.191Z,101622.52
2018-01-21T18:24:21.935Z,101623.91
2018-01-21T18:26:47.695Z,101618.34
2018-01-21T18:29:13.452Z,101618.84
2018-01-21T18:31:39.212Z,101622.42
2018-01-21T18:34:04.950Z,101621.70
2018-01-21T18:36:30.776Z,101617.98
2018-01-21T18:38:56.478Z,101606.20
2018-01-21T18:41:22.239Z,101610.10
2018-01-21T18:43:47.977Z,101603.78
2018-01-21T18:46:13.716Z,101607.77
2018-01-21T18:48:39.464Z,101608.03
2018-01-21T18:51:05.265Z,101607.63
2018-01-21T18:53:31.006Z,101610.98
2018-01-21T18:55:56.775Z,101606.37
2018-01-21T18:58:22.533Z,101601.48
2018-01-21T19:00:48.274Z,101597.33
2018-01-21T19:03:14.031Z,101596.42
2018-01-21T19:05:39.775Z,101596.73
2018-01-21T19:08:05.531Z,101595.04
2018-01-21T19:10:31.286Z,101592.92
2018-01-21T19:12:57.047Z,101583.34
2018-01-21T19:15:22.828Z,101577.41
2018-01-21T19:17:48.558Z,101577.41
2018-01-21T19:20:14.304Z,101576.16
2018-01-21T19:22:40.072Z,101577.55
2018-01-21T19:25:05.813Z,101582.30
2018-01-21T19:27:31.574Z,101589.78
2018-01-21T19:29:57.322Z,101588.48
2018-01-21T19:32:23.075Z,101580.23
2018-01-21T19:34:48.825Z,101578.56
2018-01-21T19:37:14.578Z,101576.98
2018-01-21T19:43:00.535Z,101576.63
2018-01-21T19:45:26.299Z,101577.97
2018-01-21T19:47:52.075Z,101565.41
2018-01-21T19:50:17.829Z,101565.00
2018-01-21T19:52:43.595Z,101560.73
2018-01-21T19:55:09.346Z,101564.72
2018-01-21T19:57:35.099Z,101562.12
2018-01-21T20:00:00.847Z,101553.91
2018-01-21T20:02:26.602Z,101550.91
2018-01-21T20:04:52.338Z,101541.35
2018-01-21T20:07:18.087Z,101537.08
2018-01-21T20:09:43.838Z,101527.94
2018-01-21T20:12:09.575Z,101519.69
2018-01-21T20:14:35.338Z,101517.94
2018-01-21T20:17:01.078Z,101510.63
2018-01-21T20:19:26.857Z,101504.08
2018-01-21T20:21:52.568Z,101497.05
2018-01-21T20:24:18.402Z,101494.94
2018-01-21T20:26:44.170Z,101495.79
2018-01-21T20:29:09.931Z,101511.73
2018-01-21T20:31:35.694Z,101499.41
2018-01-21T20:34:01.454Z,101501.03
2018-01-21T20:36:27.192Z,101498.68
2018-01-21T20:38:52.951Z,101506.48
2018-01-21T20:41:18.707Z,101504.37
2018-01-21T20:43:44.470Z,101496.12
2018-01-21T20:46:10.217Z,101495.59
2018-01-21T20:48:35.971Z,101498.89
2018-01-21T20:51:07.993Z,101499.42
2018-01-21T20:53:39.832Z,101495.14
2018-01-21T20:56:05.591Z,101490.80
2018-01-21T20:58:31.330Z,101498.36
2018-01-21T21:00:57.078Z,101485.36
2018-01-21T21:03:22.832Z,101490.92
2018-01-21T21:05:48.587Z,101490.08
2018-01-21T21:08:14.342Z,101486.05
2018-01-21T21:10:40.109Z,101476.42
2018-01-21T21:13:05.872Z,101468.09
2018-01-21T21:15:31.626Z,101470.61
2018-01-21T21:17:57.363Z,101473.74
2018-01-21T21:20:23.122Z,101465.37
2018-01-21T21:22:48.863Z,101464.16
2018-01-21T21:25:14.618Z,101459.36
2018-01-21T21:27:40.357Z,101447.98
2018-01-21T21:30:06.118Z,101449.24
2018-01-21T21:32:31.862Z,101451.48
2018-01-21T21:34:57.602Z,101458.83
2018-01-21T21:37:23.368Z,101464.03
2018-01-21T21:39:49.115Z,101463.54
2018-01-21T21:42:14.889Z,101465.16
2018-01-21T21:44:40.638Z,101458.38
2018-01-21T21:47:06.399Z,101457.85
2018-01-21T21:49:32.154Z,101449.53
2018-01-21T21:52:05.031Z,101450.09
2018-01-21T21:54:30.822Z,101445.22
2018-01-21T21:56:57.882Z,101455.30
2018-01-21T21:59:23.622Z,101456.19
2018-01-21T22:01:49.390Z,101452.29
2018-01-21T22:04:15.202Z,101454.52
2018-01-21T22:06:40.990Z,101438.03
2018-01-21T22:09:06.748Z,101433.33
2018-01-21T22:11:32.503Z,101433.36
2018-01-21T22:13:58.259Z,101425.93
2018-01-21T22:16:24.037Z,101419.80
2018-01-21T22:18:49.800Z,101402.45
2018-01-21T22:21:15.551Z,101396.44
2018-01-21T22:23:41.333Z,101399.56
2018-01-21T22:26:07.070Z,101415.20
2018-01-21T22:28:32.823Z,101422.97
2018-01-21T22:30:58.566Z,101431.73
2018-01-21T22:33:24.322Z,101418.12
2018-01-21T22:35:50.073Z,101411.83
2018-01-21T22:38:15.826Z,101412.64
2018-01-21T22:40:41.590Z,101414.88
2018-01-21T22:43:07.760Z,101414.84
2018-01-21T22:45:33.551Z,101406.39
2018-01-21T22:47:59.320Z,101395.52
2018-01-21T22:50:25.065Z,101397.70
2018-01-21T22:52:50.853Z,101396.32
2018-01-21T22:55:16.635Z,101396.28
2018-01-21T22:57:42.374Z,101396.25
2018-01-21T23:00:08.126Z,101399.77
2018-01-21T23:02:33.953Z,101404.20
2018-01-21T23:04:59.722Z,101386.45
2018-01-21T23:07:25.458Z,101382.55
2018-01-21T23:09:51.211Z,101388.97
2018-01-21T23:12:16.991Z,101383.00
2018-01-21T23:14:42.739Z,101389.58
2018-01-21T23:17:08.495Z,101392.06
2018-01-21T23:19:34.271Z,101386.08
2018-01-21T23:22:00.379Z,101384.30
2018-01-21T23:24:26.135Z,101369.63
2018-01-21T23:26:51.892Z,101369.30
2018-01-21T23:29:17.647Z,101360.13
2018-01-21T23:31:43.549Z,101353.62
2018-01-21T23:34:09.326Z,101343.64
2018-01-21T23:36:35.075Z,101346.16
2018-01-21T23:39:00.819Z,101346.27
2018-01-21T23:41:26.571Z,101339.41
2018-01-21T23:43:52.330Z,101331.13
2018-01-21T23:46:18.080Z,101322.58
2018-01-21T23:48:43.845Z,101319.05
2018-01-21T23:51:09.595Z,101319.47
2018-01-21T23:53:36.062Z,101314.70
2018-01-21T23:56:01.863Z,101311.77
2018-01-21T23:58:27.610Z,101313.48
